Time;durP1;ratioP1;P1;durP2;ratioP2;P2;SDS_P1;SDS_P2;PMS_P1;PMS_P2;Temp;Humidity;BMP_temperature;BMP_pressure;BME280_temperature;BME280_humidity;BME280_pressure;Samples;Min_cycle;Max_cycle;Signal;HPM_P1;HPM_P2
2024/01/12 00:01:24;;;;;;;13.57;9.25;;;4.50;99.90;;;;;;6212364;23;20012;-74
2024/01/12 00:04:10;;;;;;;14.60;9.95;;;4.50;99.90;;;;;;6211914;23;20012;-74
2024/01/12 00:06:56;;;;;;;15.90;9.25;;;4.50;99.90;;;;;;6213516;23;20004;-74
2024/01/12 00:09:43;;;;;;;15.63;10.18;;;4.50;99.90;;;;;;6212228;23;20016;-73
2024/01/12 00:12:30;;;;;;;15.52;9.93;;;4.50;99.90;;;;;;6189398;23;20059;-72
2024/01/12 00:15:16;;;;;;;14.38;9.25;;;4.50;99.90;;;;;;6212259;23;20015;-72
2024/01/12 00:18:02;;;;;;;15.98;9.40;;;4.40;99.90;;;;;;6212506;23;20004;-71
2024/01/12 00:20:47;;;;;;;15.90;9.23;;;4.40;99.90;;;;;;6211374;23;20005;-72
2024/01/12 00:23:33;;;;;;;16.50;10.02;;;4.40;99.90;;;;;;6212061;23;20016;-72
2024/01/12 00:26:19;;;;;;;11.77;7.70;;;4.40;99.90;;;;;;6189316;23;20096;-72
2024/01/12 00:29:05;;;;;;;14.10;8.82;;;4.30;99.90;;;;;;6212233;23;20004;-72
2024/01/12 00:31:51;;;;;;;14.55;8.27;;;4.40;99.90;;;;;;6190640;23;20011;-72
2024/01/12 00:34:37;;;;;;;15.52;9.25;;;4.30;99.90;;;;;;6211907;23;20032;-72
2024/01/12 00:37:23;;;;;;;18.83;9.98;;;4.30;99.90;;;;;;6212455;23;20008;-72
2024/01/12 00:40:09;;;;;;;14.98;10.20;;;4.30;99.90;;;;;;6211523;23;20071;-71
2024/01/12 00:42:55;;;;;;;16.33;9.27;;;4.30;99.90;;;;;;6191343;23;20040;-72
2024/01/12 00:45:41;;;;;;;15.88;9.25;;;4.30;99.90;;;;;;6213138;23;20392;-72
2024/01/12 00:48:27;;;;;;;17.02;9.73;;;4.30;99.90;;;;;;6211031;23;20021;-72
2024/01/12 00:51:13;;;;;;;12.10;7.68;;;4.20;99.90;;;;;;6188312;23;20009;-72
2024/01/12 00:53:59;;;;;;;17.88;9.98;;;4.30;99.90;;;;;;6189955;23;20004;-70
2024/01/12 00:56:45;;;;;;;20.63;9.40;;;4.20;99.90;;;;;;6214083;23;20020;-70
2024/01/12 00:59:31;;;;;;;14.82;9.25;;;4.10;99.90;;;;;;6224111;23;20004;-70
2024/01/12 01:02:17;;;;;;;18.85;8.57;;;4.20;99.90;;;;;;6235523;23;20008;-73
2024/01/12 01:05:03;;;;;;;15.32;9.55;;;4.10;99.90;;;;;;6214229;23;20039;-72
2024/01/12 01:07:49;;;;;;;18.45;9.68;;;4.10;99.90;;;;;;6206177;23;20008;-72
2024/01/12 01:10:35;;;;;;;18.05;8.15;;;4.10;99.90;;;;;;6227997;23;20032;-72
2024/01/12 01:13:21;;;;;;;18.10;10.25;;;4.10;99.90;;;;;;6211205;23;20040;-72
2024/01/12 01:16:07;;;;;;;15.45;9.02;;;4.10;99.90;;;;;;6209465;23;20009;-72
2024/01/12 01:18:53;;;;;;;16.08;9.43;;;4.00;99.90;;;;;;6212077;23;20011;-72
2024/01/12 01:21:39;;;;;;;18.52;9.60;;;4.00;99.90;;;;;;6189705;23;20013;-72
2024/01/12 01:24:29;;;;;;;17.45;9.32;;;3.90;99.90;;;;;;6210304;23;20024;-72
2024/01/12 01:27:15;;;;;;;18.67;10.95;;;3.90;99.90;;;;;;6211908;23;20012;-72
2024/01/12 01:30:00;;;;;;;13.50;8.45;;;4.00;99.90;;;;;;6209161;23;20088;-72
2024/01/12 01:32:48;;;;;;;14.70;8.88;;;3.90;99.90;;;;;;6211890;23;20001;-72
2024/01/12 01:35:34;;;;;;;17.05;9.07;;;4.00;99.90;;;;;;6211898;23;20018;-72
2024/01/12 01:38:21;;;;;;;19.23;9.43;;;3.90;99.90;;;;;;6189510;23;20000;-72
2024/01/12 01:41:07;;;;;;;15.93;9.70;;;3.90;99.90;;;;;;6212197;23;20384;-72
2024/01/12 01:43:53;;;;;;;19.25;9.40;;;3.90;99.90;;;;;;6189361;23;20060;-72
2024/01/12 01:46:39;;;;;;;17.38;9.70;;;4.00;99.90;;;;;;6211892;23;20341;-73
2024/01/12 01:49:26;;;;;;;15.25;9.50;;;3.90;99.90;;;;;;6212152;23;20067;-73
2024/01/12 01:52:12;;;;;;;15.20;9.55;;;4.00;99.90;;;;;;6209553;23;20485;-72
2024/01/12 01:54:58;;;;;;;16.05;9.18;;;3.90;99.90;;;;;;6211521;23;20158;-72
2024/01/12 01:57:46;;;;;;;14.85;9.35;;;3.90;99.90;;;;;;6212150;23;20035;-72
2024/01/12 02:00:34;;;;;;;14.43;9.38;;;3.90;99.90;;;;;;6190059;23;20009;-73
2024/01/12 02:03:20;;;;;;;14.57;8.90;;;3.90;99.90;;;;;;6211680;23;20008;-72
2024/01/12 02:06:06;;;;;;;15.35;9.65;;;3.90;99.90;;;;;;6189558;23;20369;-72
2024/01/12 02:08:52;;;;;;;16.63;9.20;;;3.80;99.90;;;;;;6209700;23;20000;-72
2024/01/12 02:11:38;;;;;;;13.65;9.07;;;3.80;99.90;;;;;;6208829;23;20067;-73
2024/01/12 02:14:24;;;;;;;15.80;9.45;;;3.80;99.90;;;;;;6209381;23;20441;-73
2024/01/12 02:17:10;;;;;;;13.32;8.95;;;3.80;99.90;;;;;;6210865;23;20107;-72
2024/01/12 02:19:58;;;;;;;13.35;8.18;;;3.90;99.90;;;;;;6211547;23;20424;-71
2024/01/12 02:22:44;;;;;;;17.85;9.00;;;3.90;99.90;;;;;;6190932;23;20005;-72
2024/01/12 02:25:29;;;;;;;15.52;9.68;;;3.90;99.90;;;;;;6213141;23;20048;-71
2024/01/12 02:28:16;;;;;;;14.57;9.02;;;4.00;99.90;;;;;;6213186;23;20004;-71
2024/01/12 02:31:02;;;;;;;15.07;9.00;;;4.00;99.90;;;;;;6213778;23;20012;-73
2024/01/12 02:33:51;;;;;;;17.02;10.40;;;4.00;99.90;;;;;;6192940;23;20008;-73
2024/01/12 02:36:37;;;;;;;14.77;10.05;;;4.00;99.90;;;;;;6210097;23;20005;-73
2024/01/12 02:39:23;;;;;;;14.23;9.35;;;4.00;99.90;;;;;;6210950;23;20009;-73
2024/01/12 02:42:09;;;;;;;16.20;9.88;;;4.00;99.90;;;;;;6191104;23;20020;-73
2024/01/12 02:44:55;;;;;;;15.00;9.65;;;4.00;99.90;;;;;;6193218;23;20078;-73
2024/01/12 02:47:42;;;;;;;14.85;9.32;;;4.00;99.90;;;;;;6212500;23;20102;-74
2024/01/12 02:50:28;;;;;;;13.35;8.38;;;4.10;99.90;;;;;;6213250;23;20001;-74
2024/01/12 02:53:14;;;;;;;11.90;7.68;;;4.10;99.90;;;;;;6212870;23;20009;-75
2024/01/12 02:56:00;;;;;;;13.68;7.65;;;4.10;99.90;;;;;;6211604;23;20345;-74
2024/01/12 02:58:46;;;;;;;15.55;8.70;;;4.10;99.90;;;;;;6211881;23;20040;-75
2024/01/12 03:01:34;;;;;;;15.45;9.00;;;4.10;99.90;;;;;;6191193;23;20083;-74
2024/01/12 03:04:20;;;;;;;14.43;8.00;;;4.00;99.90;;;;;;6191387;23;20012;-74
2024/01/12 03:07:06;;;;;;;16.70;9.10;;;3.80;99.90;;;;;;6210874;23;20005;-74
2024/01/12 03:09:52;;;;;;;18.67;9.27;;;3.70;99.90;;;;;;6210956;23;20309;-74
2024/01/12 03:12:38;;;;;;;15.38;8.77;;;3.70;99.90;;;;;;6191641;23;20310;-72
2024/01/12 03:15:24;;;;;;;14.05;8.80;;;3.70;99.90;;;;;;6212021;23;20087;-70
2024/01/12 03:18:10;;;;;;;14.85;8.88;;;3.60;99.90;;;;;;6209133;23;20012;-72
2024/01/12 03:20:57;;;;;;;16.83;10.07;;;3.60;99.90;;;;;;6191248;23;20011;-71
2024/01/12 03:23:43;;;;;;;13.35;7.25;;;3.60;99.90;;;;;;6211966;23;20019;-71
2024/01/12 03:26:29;;;;;;;16.65;9.32;;;3.60;99.90;;;;;;6212134;23;20017;-71
2024/01/12 03:29:15;;;;;;;16.70;8.20;;;3.60;99.90;;;;;;6211005;23;20008;-71
2024/01/12 03:32:00;;;;;;;14.30;9.18;;;3.60;99.90;;;;;;6211225;23;20012;-71
2024/01/12 03:34:46;;;;;;;15.77;8.80;;;3.50;99.90;;;;;;6211363;23;20417;-71
2024/01/12 03:37:33;;;;;;;13.68;7.97;;;3.60;99.90;;;;;;6212139;23;20389;-71
2024/01/12 03:40:19;;;;;;;19.35;9.77;;;3.60;99.90;;;;;;6210919;23;20337;-71
2024/01/12 03:43:05;;;;;;;13.90;9.02;;;3.70;99.90;;;;;;6211114;23;20005;-71
2024/01/12 03:45:51;;;;;;;15.63;8.70;;;3.70;99.90;;;;;;6212718;23;20108;-71
2024/01/12 03:48:37;;;;;;;13.32;8.45;;;3.80;99.90;;;;;;6211135;23;20096;-71
2024/01/12 03:51:23;;;;;;;16.25;8.70;;;3.80;99.90;;;;;;6212468;23;20039;-71
2024/01/12 03:54:09;;;;;;;16.08;9.00;;;3.80;99.90;;;;;;6213466;23;20008;-71
2024/01/12 03:56:55;;;;;;;17.15;10.15;;;3.80;99.90;;;;;;6210908;23;20009;-71
2024/01/12 03:59:41;;;;;;;14.32;8.63;;;3.90;99.90;;;;;;6211802;23;20039;-71
2024/01/12 04:02:26;;;;;;;13.65;8.20;;;3.90;99.90;;;;;;6191690;23;20080;-71
2024/01/12 04:05:12;;;;;;;14.13;8.15;;;3.90;99.90;;;;;;6210987;23;20016;-71
2024/01/12 04:07:58;;;;;;;13.48;7.35;;;3.90;99.90;;;;;;6212690;23;20005;-70
2024/01/12 04:10:45;;;;;;;15.60;8.73;;;4.00;99.90;;;;;;6210515;23;20338;-71
2024/01/12 04:13:31;;;;;;;13.70;7.38;;;3.90;99.90;;;;;;6210495;23;20012;-71
2024/01/12 04:16:17;;;;;;;16.38;9.48;;;3.90;99.90;;;;;;6212633;23;20019;-71
2024/01/12 04:19:03;;;;;;;12.23;6.95;;;3.80;99.90;;;;;;6210620;23;20008;-70
2024/01/12 04:21:48;;;;;;;13.70;7.53;;;3.80;99.90;;;;;;6212030;23;20012;-71
2024/01/12 04:24:34;;;;;;;14.95;8.18;;;3.80;99.90;;;;;;6211952;23;20020;-74
2024/01/12 04:27:20;;;;;;;13.02;7.80;;;3.80;99.90;;;;;;6189812;23;20052;-72
2024/01/12 04:30:08;;;;;;;15.48;8.68;;;3.90;99.90;;;;;;6192203;23;20012;-72
2024/01/12 04:32:54;;;;;;;14.85;8.30;;;3.80;99.90;;;;;;6190929;23;20062;-73
2024/01/12 04:35:40;;;;;;;12.13;7.60;;;3.80;99.90;;;;;;6212133;23;20337;-72
2024/01/12 04:38:27;;;;;;;13.55;8.35;;;3.80;99.90;;;;;;6190509;23;20008;-72
2024/01/12 04:41:13;;;;;;;12.90;7.63;;;3.80;99.90;;;;;;6233407;23;20024;-72
2024/01/12 04:43:59;;;;;;;15.85;8.38;;;3.80;99.90;;;;;;6232196;23;20020;-74
2024/01/12 04:46:45;;;;;;;15.40;8.35;;;3.80;99.90;;;;;;6207561;23;20044;-73
2024/01/12 04:49:31;;;;;;;14.50;8.63;;;3.80;99.90;;;;;;6225899;23;20039;-73
2024/01/12 04:52:17;;;;;;;11.88;7.95;;;3.70;99.90;;;;;;6215613;23;20011;-73
2024/01/12 04:55:03;;;;;;;12.57;7.93;;;3.70;99.90;;;;;;6212108;23;20012;-73
2024/01/12 04:57:49;;;;;;;13.90;7.93;;;3.70;99.90;;;;;;6191985;23;20013;-73
2024/01/12 05:00:35;;;;;;;13.63;7.40;;;3.60;99.90;;;;;;6212345;23;20084;-73
2024/01/12 05:03:21;;;;;;;14.30;8.38;;;3.60;99.90;;;;;;6209531;23;20012;-73
2024/01/12 05:06:07;;;;;;;12.13;7.38;;;3.60;99.90;;;;;;6211589;23;20016;-72
2024/01/12 05:08:53;;;;;;;13.52;7.97;;;3.70;99.90;;;;;;6210333;23;20331;-68
2024/01/12 05:11:39;;;;;;;12.93;7.65;;;3.60;99.90;;;;;;6210641;23;20005;-71
2024/01/12 05:14:25;;;;;;;12.20;7.65;;;3.60;99.90;;;;;;6210577;23;20448;-71
2024/01/12 05:17:11;;;;;;;15.95;8.48;;;3.60;99.90;;;;;;6210886;23;20055;-74
2024/01/12 05:19:58;;;;;;;16.15;8.48;;;3.60;99.90;;;;;;6209921;23;20040;-74
2024/01/12 05:22:44;;;;;;;16.77;9.07;;;3.60;99.90;;;;;;6210087;23;20434;-74
2024/01/12 05:25:30;;;;;;;14.43;9.50;;;3.70;99.90;;;;;;6189301;23;20019;-74
2024/01/12 05:28:16;;;;;;;13.38;9.05;;;3.70;99.90;;;;;;6210868;23;20000;-74
2024/01/12 05:31:02;;;;;;;13.68;8.32;;;3.70;99.90;;;;;;6211057;23;20013;-74
2024/01/12 05:33:48;;;;;;;13.15;7.70;;;3.80;99.90;;;;;;6191605;23;20007;-74
2024/01/12 05:36:34;;;;;;;13.27;8.70;;;3.70;99.90;;;;;;6212404;23;20005;-74
2024/01/12 05:39:20;;;;;;;14.48;7.65;;;3.70;99.90;;;;;;6210375;23;20017;-74
2024/01/12 05:42:06;;;;;;;13.27;8.05;;;3.70;99.90;;;;;;6189756;23;20045;-74
2024/01/12 05:44:52;;;;;;;13.20;8.07;;;3.60;99.90;;;;;;6190760;23;20027;-74
2024/01/12 05:47:41;;;;;;;11.20;7.18;;;3.60;99.90;;;;;;6211138;23;20027;-75
2024/01/12 05:50:27;;;;;;;11.77;6.72;;;3.50;99.90;;;;;;6189776;23;20456;-74
2024/01/12 05:53:13;;;;;;;12.32;7.40;;;3.60;99.90;;;;;;6190890;23;20004;-74
2024/01/12 05:55:58;;;;;;;11.40;6.93;;;3.50;99.90;;;;;;6211780;23;20349;-74
2024/01/12 05:58:44;;;;;;;10.57;7.35;;;3.60;99.90;;;;;;6210427;23;20428;-74
2024/01/12 06:01:31;;;;;;;12.13;7.18;;;3.60;99.90;;;;;;6211081;23;20326;-71
2024/01/12 06:04:17;;;;;;;13.45;7.72;;;3.60;99.90;;;;;;6211968;23;20096;-73
2024/01/12 06:07:03;;;;;;;12.13;6.97;;;3.70;99.90;;;;;;6189794;23;20011;-71
2024/01/12 06:09:49;;;;;;;11.45;7.35;;;3.70;99.90;;;;;;6211584;23;20482;-76
2024/01/12 06:12:35;;;;;;;14.05;7.95;;;3.70;99.90;;;;;;6206852;23;20001;-70
2024/01/12 06:15:21;;;;;;;15.50;8.43;;;3.70;99.90;;;;;;6190727;23;20032;-68
2024/01/12 06:18:06;;;;;;;12.25;7.22;;;3.80;99.90;;;;;;6212352;23;20009;-66
2024/01/12 06:20:52;;;;;;;14.30;8.55;;;3.70;99.90;;;;;;6209535;23;20074;-66
2024/01/12 06:23:39;;;;;;;14.18;8.60;;;3.70;99.90;;;;;;6210055;23;20353;-66
2024/01/12 06:26:24;;;;;;;16.35;8.30;;;3.60;99.90;;;;;;6209944;23;20008;-67
2024/01/12 06:29:10;;;;;;;12.75;8.05;;;3.50;99.90;;;;;;6208582;23;20011;-68
2024/01/12 06:31:56;;;;;;;16.58;9.70;;;3.50;99.90;;;;;;6209035;23;20465;-66
2024/01/12 06:34:42;;;;;;;19.02;10.15;;;3.50;99.90;;;;;;6211567;23;20563;-66
2024/01/12 06:37:28;;;;;;;17.45;10.23;;;3.60;99.90;;;;;;6209209;23;20012;-67
2024/01/12 06:40:14;;;;;;;17.73;9.80;;;3.50;99.90;;;;;;6210939;23;20376;-66
2024/01/12 06:43:00;;;;;;;16.75;10.68;;;3.50;99.90;;;;;;6211082;23;20015;-66
2024/01/12 06:45:46;;;;;;;15.05;9.65;;;3.50;99.90;;;;;;6210720;23;20507;-67
2024/01/12 06:48:34;;;;;;;15.63;9.18;;;3.40;99.90;;;;;;6209774;23;20008;-67
2024/01/12 06:51:23;;;;;;;16.48;10.90;;;3.40;99.90;;;;;;6210912;23;20549;-67
2024/01/12 06:54:10;;;;;;;17.23;9.73;;;3.40;99.90;;;;;;6211627;23;20016;-67
2024/01/12 06:56:58;;;;;;;14.32;8.20;;;3.40;99.90;;;;;;6211580;23;20004;-68
2024/01/12 06:59:44;;;;;;;14.60;9.02;;;3.50;99.90;;;;;;6209978;23;20472;-68
2024/01/12 07:02:30;;;;;;;15.55;9.55;;;3.40;99.90;;;;;;6209106;23;20430;-68
2024/01/12 07:05:16;;;;;;;17.80;10.82;;;3.50;99.90;;;;;;6209645;23;20433;-68
2024/01/12 07:08:02;;;;;;;14.88;9.15;;;3.50;99.90;;;;;;6190297;23;20088;-68
2024/01/12 07:10:48;;;;;;;17.13;8.70;;;3.40;99.90;;;;;;6212675;23;20011;-68
2024/01/12 07:13:34;;;;;;;15.07;8.27;;;3.40;99.90;;;;;;6210438;23;20389;-68
2024/01/12 07:16:20;;;;;;;16.92;8.93;;;3.40;99.90;;;;;;6211838;23;20290;-68
2024/01/12 07:19:09;;;;;;;15.50;9.13;;;3.40;99.90;;;;;;6213405;23;20004;-69
2024/01/12 07:21:55;;;;;;;13.90;8.90;;;3.40;99.90;;;;;;6190971;23;20086;-69
2024/01/12 07:24:41;;;;;;;12.48;7.93;;;3.50;99.90;;;;;;6190933;23;20023;-68
2024/01/12 07:27:27;;;;;;;14.30;8.30;;;3.50;99.90;;;;;;6213481;23;20028;-68
2024/01/12 07:30:13;;;;;;;14.02;7.97;;;3.40;99.90;;;;;;6209886;23;20020;-68
2024/01/12 07:32:59;;;;;;;15.82;8.75;;;3.40;99.90;;;;;;6211454;23;20376;-67
2024/01/12 07:35:45;;;;;;;16.55;10.57;;;3.40;99.90;;;;;;6190615;23;20016;-67
2024/01/12 07:38:31;;;;;;;13.45;8.55;;;3.40;99.90;;;;;;6189893;23;20360;-68
2024/01/12 07:41:17;;;;;;;14.48;8.35;;;3.50;99.90;;;;;;6211438;23;20008;-68
2024/01/12 07:44:04;;;;;;;14.35;8.80;;;3.50;99.90;;;;;;6212764;23;20028;-68
2024/01/12 07:46:50;;;;;;;11.93;7.45;;;3.50;99.90;;;;;;6211942;23;20017;-68
2024/01/12 07:49:36;;;;;;;12.57;7.70;;;3.50;99.90;;;;;;6213103;23;20039;-68
2024/01/12 07:52:22;;;;;;;15.73;9.40;;;3.40;99.90;;;;;;6211201;23;20007;-68
2024/01/12 07:55:08;;;;;;;13.38;8.18;;;3.50;99.90;;;;;;6210819;23;20004;-68
2024/01/12 07:57:55;;;;;;;17.20;9.27;;;3.40;99.90;;;;;;6212369;23;20112;-68
2024/01/12 08:00:40;;;;;;;13.52;8.48;;;3.40;99.90;;;;;;6210918;23;20012;-68
2024/01/12 08:03:26;;;;;;;12.48;7.28;;;3.50;99.90;;;;;;6210601;23;20047;-68
2024/01/12 08:06:12;;;;;;;14.07;8.35;;;3.50;99.90;;;;;;6209911;23;20371;-68
2024/01/12 08:08:58;;;;;;;10.50;6.32;;;3.50;99.90;;;;;;6211034;23;20016;-68
2024/01/12 08:11:44;;;;;;;12.13;7.72;;;3.60;99.90;;;;;;6192786;23;20063;-68
2024/01/12 08:14:30;;;;;;;11.63;6.03;;;3.60;99.90;;;;;;6205626;23;20032;-67
2024/01/12 08:17:16;;;;;;;11.57;6.47;;;3.50;99.90;;;;;;6233321;23;20215;-68
2024/01/12 08:20:02;;;;;;;10.10;5.60;;;3.60;99.90;;;;;;6217812;23;20004;-68
2024/01/12 08:22:48;;;;;;;12.40;6.38;;;3.60;99.90;;;;;;6214285;23;20389;-68
2024/01/12 08:25:34;;;;;;;10.30;6.35;;;3.60;99.90;;;;;;6192465;23;20289;-65
2024/01/12 08:28:20;;;;;;;11.95;7.10;;;3.60;99.90;;;;;;6211952;23;20009;-64
2024/01/12 08:31:06;;;;;;;10.52;6.28;;;3.60;99.90;;;;;;6183434;23;20267;-64
2024/01/12 08:33:52;;;;;;;12.15;6.78;;;3.70;99.90;;;;;;6212042;23;20338;-66
2024/01/12 08:36:38;;;;;;;11.50;6.55;;;3.70;99.90;;;;;;6211039;23;20418;-65
2024/01/12 08:39:24;;;;;;;13.65;6.55;;;3.70;99.90;;;;;;6213015;23;20338;-64
2024/01/12 08:42:09;;;;;;;14.20;7.13;;;3.70;99.90;;;;;;6192156;23;20024;-66
2024/01/12 08:44:55;;;;;;;12.70;7.43;;;3.80;99.90;;;;;;6210639;23;20444;-66
2024/01/12 08:47:41;;;;;;;11.63;6.28;;;3.80;99.90;;;;;;6190855;23;20082;-65
2024/01/12 08:50:28;;;;;;;9.40;5.75;;;3.80;99.90;;;;;;6210574;23;20468;-65
2024/01/12 08:53:15;;;;;;;9.00;5.50;;;3.90;99.90;;;;;;6209772;23;20005;-66
2024/01/12 08:56:02;;;;;;;10.30;6.43;;;3.90;99.90;;;;;;6210666;23;20432;-66
2024/01/12 08:58:48;;;;;;;9.40;6.07;;;3.90;99.90;;;;;;6191130;23;20028;-66
2024/01/12 09:01:34;;;;;;;10.45;6.20;;;4.00;99.90;;;;;;6191473;23;20012;-66
2024/01/12 09:04:20;;;;;;;9.90;5.68;;;4.00;99.90;;;;;;6212163;23;20016;-69
2024/01/12 09:07:06;;;;;;;7.75;5.10;;;4.00;99.90;;;;;;6190447;23;20004;-66
2024/01/12 09:09:52;;;;;;;12.77;5.45;;;4.00;99.90;;;;;;6211585;23;20004;-66
2024/01/12 09:12:38;;;;;;;10.57;5.78;;;4.00;99.90;;;;;;6189272;23;20087;-66
2024/01/12 09:15:24;;;;;;;10.60;6.35;;;4.00;99.90;;;;;;6210569;23;20344;-66
2024/01/12 09:18:10;;;;;;;10.68;6.45;;;4.00;99.90;;;;;;6210284;23;20012;-67
2024/01/12 09:20:56;;;;;;;11.27;6.85;;;4.00;99.90;;;;;;6211839;23;20004;-66
2024/01/12 09:23:43;;;;;;;9.52;5.82;;;4.00;99.90;;;;;;6209544;23;20011;-66
2024/01/12 09:26:29;;;;;;;10.15;5.65;;;4.00;99.90;;;;;;6211953;23;20013;-66
2024/01/12 09:29:14;;;;;;;13.65;6.63;;;4.10;99.90;;;;;;6209277;23;20000;-66
2024/01/12 09:32:00;;;;;;;10.52;6.07;;;4.00;99.90;;;;;;6189960;23;20040;-66
2024/01/12 09:34:46;;;;;;;8.52;5.18;;;4.10;99.90;;;;;;6211835;23;20004;-65
2024/01/12 09:37:32;;;;;;;10.32;5.70;;;4.10;99.90;;;;;;6212331;23;20009;-67
2024/01/12 09:40:19;;;;;;;7.68;4.80;;;4.10;99.90;;;;;;6190327;23;20011;-67
2024/01/12 09:43:12;;;;;;;9.63;5.63;;;4.10;99.90;;;;;;6211823;23;20392;-67
2024/01/12 09:46:04;;;;;;;8.60;5.30;;;4.20;99.90;;;;;;6211142;23;20033;-67
2024/01/12 09:48:51;;;;;;;7.80;4.72;;;4.20;99.90;;;;;;6210288;23;20028;-69
2024/01/12 09:51:37;;;;;;;7.55;4.32;;;4.20;99.90;;;;;;6209647;23;20464;-66
2024/01/12 09:54:23;;;;;;;10.15;6.38;;;4.20;99.90;;;;;;6210110;23;20008;-67
2024/01/12 09:57:11;;;;;;;8.27;4.57;;;4.20;99.90;;;;;;6211648;23;20012;-66
2024/01/12 09:59:59;;;;;;;7.93;4.90;;;4.30;99.90;;;;;;6211667;23;20387;-67
2024/01/12 10:02:45;;;;;;;9.00;5.05;;;4.20;99.90;;;;;;6211493;23;20008;-66
2024/01/12 10:05:31;;;;;;;7.82;5.38;;;4.30;99.90;;;;;;6211387;23;20012;-67
2024/01/12 10:08:17;;;;;;;7.35;5.22;;;4.30;99.90;;;;;;6211852;23;20055;-66
2024/01/12 10:11:03;;;;;;;10.45;5.07;;;4.30;99.90;;;;;;6211675;23;20100;-68
2024/01/12 10:13:49;;;;;;;10.32;5.40;;;4.30;99.90;;;;;;6209821;23;20031;-67
2024/01/12 10:16:39;;;;;;;6.32;4.25;;;4.30;99.90;;;;;;6208996;23;20426;-66
2024/01/12 10:19:25;;;;;;;8.70;4.97;;;4.30;99.90;;;;;;6209682;23;20009;-67
2024/01/12 10:22:14;;;;;;;9.02;5.15;;;4.40;99.90;;;;;;6209314;23;20000;-67
2024/01/12 10:25:04;;;;;;;9.23;5.45;;;4.30;99.90;;;;;;6211541;23;20016;-67
2024/01/12 10:27:59;;;;;;;8.25;5.25;;;4.30;99.90;;;;;;6210954;23;20005;-67
2024/01/12 10:30:45;;;;;;;7.03;4.60;;;4.30;99.90;;;;;;6210722;23;20008;-66
2024/01/12 10:33:32;;;;;;;8.48;4.57;;;4.30;99.90;;;;;;6209180;23;20004;-67
2024/01/12 10:36:21;;;;;;;12.07;5.47;;;4.30;99.90;;;;;;6211849;23;20036;-67
2024/01/12 10:39:09;;;;;;;9.40;5.28;;;4.30;99.90;;;;;;6208860;23;20008;-66
2024/01/12 10:42:01;;;;;;;8.15;4.65;;;4.30;99.90;;;;;;6211559;23;20009;-68
2024/01/12 10:44:50;;;;;;;10.85;5.22;;;4.30;99.90;;;;;;6208954;23;20040;-67
2024/01/12 10:47:40;;;;;;;9.30;5.53;;;4.30;99.90;;;;;;6213802;23;20503;-67
2024/01/12 10:50:26;;;;;;;9.65;5.95;;;4.30;99.90;;;;;;6211727;23;20388;-67
2024/01/12 10:53:21;;;;;;;8.20;6.00;;;4.30;99.90;;;;;;6193033;23;20008;-67
2024/01/12 10:56:08;;;;;;;8.57;5.80;;;4.30;99.90;;;;;;6193092;23;20074;-67
2024/01/12 10:58:54;;;;;;;9.65;5.40;;;4.30;99.90;;;;;;6213006;23;20543;-67
2024/01/12 11:01:41;;;;;;;8.50;4.93;;;4.30;99.90;;;;;;6212866;23;20008;-67
2024/01/12 11:04:29;;;;;;;9.98;5.40;;;4.30;99.90;;;;;;6192926;23;20013;-67
2024/01/12 11:07:15;;;;;;;11.50;5.75;;;4.30;99.90;;;;;;6192673;23;20296;-67
2024/01/12 11:10:01;;;;;;;9.80;5.93;;;4.30;99.90;;;;;;6213434;23;20009;-66
2024/01/12 11:12:47;;;;;;;10.55;6.18;;;4.30;99.90;;;;;;6211331;23;20001;-66
2024/01/12 11:15:33;;;;;;;12.43;6.55;;;4.30;99.90;;;;;;6212620;23;20005;-66
2024/01/12 11:18:19;;;;;;;13.15;6.97;;;4.30;99.90;;;;;;6213161;23;20008;-66
2024/01/12 11:21:05;;;;;;;13.90;7.95;;;4.30;99.90;;;;;;6211108;23;20004;-66
2024/01/12 11:23:53;;;;;;;11.48;7.07;;;4.30;99.90;;;;;;6211009;23;20441;-66
2024/01/12 11:26:41;;;;;;;13.23;7.30;;;4.20;99.90;;;;;;6210368;23;20012;-66
2024/01/12 11:29:31;;;;;;;10.13;6.20;;;4.20;99.90;;;;;;6212182;23;20004;-66
2024/01/12 11:32:17;;;;;;;11.75;6.40;;;4.20;99.90;;;;;;6211853;23;20012;-65
2024/01/12 11:35:19;;;;;;;11.35;5.90;;;4.20;99.90;;;;;;6190585;23;20004;-66
2024/01/12 11:38:08;;;;;;;10.30;5.55;;;4.10;99.90;;;;;;6232257;23;20013;-66
2024/01/12 11:40:54;;;;;;;9.88;5.63;;;4.10;99.90;;;;;;6230171;23;20005;-66
2024/01/12 11:43:48;;;;;;;10.27;6.15;;;4.10;99.90;;;;;;6193010;23;20356;-67
2024/01/12 11:46:35;;;;;;;9.48;5.90;;;4.00;99.90;;;;;;6213181;23;20020;-68
2024/01/12 11:49:22;;;;;;;8.85;5.82;;;4.00;99.90;;;;;;6209428;23;20071;-65
2024/01/12 11:52:08;;;;;;;9.35;5.68;;;4.10;99.90;;;;;;6187416;23;20015;-65
2024/01/12 11:54:54;;;;;;;8.80;6.07;;;4.10;99.90;;;;;;6209020;23;20005;-68
2024/01/12 11:57:40;;;;;;;10.60;6.18;;;4.10;99.90;;;;;;6191582;23;20039;-66
2024/01/12 12:00:25;;;;;;;9.90;5.63;;;4.10;99.90;;;;;;6191107;23;20004;-65
2024/01/12 12:03:11;;;;;;;11.75;6.05;;;4.00;99.90;;;;;;6210126;23;20094;-66
2024/01/12 12:05:57;;;;;;;11.68;7.00;;;4.00;99.90;;;;;;6210092;23;20017;-66
2024/01/12 12:08:43;;;;;;;11.02;6.22;;;4.00;99.90;;;;;;6192200;23;20005;-66
2024/01/12 12:11:29;;;;;;;9.02;5.63;;;3.90;99.90;;;;;;6210093;23;20040;-72
2024/01/12 12:14:15;;;;;;;14.60;6.07;;;3.90;99.90;;;;;;6209525;23;20520;-72
2024/01/12 12:17:01;;;;;;;10.90;6.13;;;3.90;99.90;;;;;;6190690;23;20004;-72
2024/01/12 12:19:47;;;;;;;10.98;7.00;;;3.90;99.90;;;;;;6209422;23;20334;-71
2024/01/12 12:22:33;;;;;;;10.90;7.32;;;3.90;99.90;;;;;;6213186;23;20004;-72
2024/01/12 12:25:19;;;;;;;12.95;7.47;;;3.90;99.90;;;;;;6211883;23;20043;-72
2024/01/12 12:28:05;;;;;;;12.70;7.13;;;3.90;99.90;;;;;;6211480;23;20169;-72
2024/01/12 12:30:55;;;;;;;12.98;6.47;;;3.90;99.90;;;;;;6210386;23;20005;-73
2024/01/12 12:33:45;;;;;;;11.05;6.68;;;3.90;99.90;;;;;;6190522;23;20451;-73
2024/01/12 12:36:31;;;;;;;12.18;6.60;;;3.90;99.90;;;;;;6212627;23;20013;-72
2024/01/12 12:39:17;;;;;;;15.98;7.93;;;3.90;99.90;;;;;;6189472;23;20345;-66
2024/01/12 12:42:06;;;;;;;12.85;9.05;;;3.90;99.90;;;;;;6210281;23;20071;-66
2024/01/12 12:44:53;;;;;;;15.60;8.00;;;3.90;99.90;;;;;;6209458;23;20028;-66
2024/01/12 12:47:42;;;;;;;14.43;9.02;;;3.90;99.90;;;;;;6210534;23;20115;-65
2024/01/12 12:50:29;;;;;;;15.02;8.00;;;3.90;99.90;;;;;;6211306;23;20083;-67
2024/01/12 12:53:15;;;;;;;15.93;9.05;;;3.90;99.90;;;;;;6211227;23;20184;-66
2024/01/12 12:56:01;;;;;;;16.40;9.05;;;3.90;99.90;;;;;;6192710;23;20036;-66
2024/01/12 12:58:48;;;;;;;15.65;8.63;;;3.90;99.90;;;;;;6210810;23;20349;-65
2024/01/12 13:01:34;;;;;;;12.90;7.22;;;3.90;99.90;;;;;;6211596;23;20001;-65
2024/01/12 13:04:20;;;;;;;13.88;7.40;;;3.90;99.90;;;;;;6211521;23;20020;-65
2024/01/12 13:07:06;;;;;;;16.25;7.72;;;3.90;99.90;;;;;;6211833;23;20004;-65
2024/01/12 13:09:52;;;;;;;12.98;7.68;;;3.90;99.90;;;;;;6212551;23;20020;-66
2024/01/12 13:12:39;;;;;;;13.52;8.15;;;3.90;99.90;;;;;;6191370;23;20104;-67
2024/01/12 13:15:25;;;;;;;15.82;7.47;;;3.80;99.90;;;;;;6210908;23;20143;-65
2024/01/12 13:18:11;;;;;;;10.93;6.05;;;3.90;99.90;;;;;;6212397;23;20004;-66
2024/01/12 13:20:57;;;;;;;11.25;6.05;;;3.90;99.90;;;;;;6212053;23;20008;-66
2024/01/12 13:23:43;;;;;;;9.25;6.18;;;3.90;99.90;;;;;;6211988;23;20039;-66
2024/01/12 13:26:32;;;;;;;11.45;7.07;;;3.90;99.90;;;;;;6210386;23;20203;-65
2024/01/12 13:29:18;;;;;;;8.73;5.50;;;3.70;99.90;;;;;;6210878;23;20314;-66
2024/01/12 13:32:04;;;;;;;9.38;6.50;;;3.70;99.90;;;;;;6208356;23;20028;-65
2024/01/12 13:34:50;;;;;;;10.60;5.60;;;3.70;99.90;;;;;;6208731;23;19997;-66
2024/01/12 13:37:36;;;;;;;12.30;7.18;;;3.60;99.90;;;;;;6211378;23;20008;-66
2024/01/12 13:40:22;;;;;;;14.90;6.95;;;3.50;99.90;;;;;;6211888;23;20001;-66
2024/01/12 13:43:07;;;;;;;13.05;6.50;;;3.50;99.90;;;;;;6210342;23;20396;-66
2024/01/12 13:45:53;;;;;;;11.55;6.57;;;3.40;99.90;;;;;;6209261;23;20044;-67
2024/01/12 13:48:41;;;;;;;11.85;5.90;;;3.40;99.90;;;;;;6208889;23;20019;-68
2024/01/12 13:51:26;;;;;;;14.05;7.47;;;3.40;99.90;;;;;;6191498;23;20008;-69
2024/01/12 13:54:13;;;;;;;10.45;6.60;;;3.40;99.90;;;;;;6208729;23;20011;-66
2024/01/12 13:56:59;;;;;;;11.82;6.72;;;3.30;99.90;;;;;;6211608;23;20008;-67
2024/01/12 13:59:45;;;;;;;13.25;6.55;;;3.30;99.90;;;;;;6212080;23;20000;-66
2024/01/12 14:02:31;;;;;;;10.18;5.93;;;3.20;99.90;;;;;;6207967;23;20008;-67
2024/01/12 14:05:17;;;;;;;11.40;6.63;;;3.20;99.90;;;;;;6209514;23;20012;-67
2024/01/12 14:08:03;;;;;;;12.55;7.55;;;3.20;99.90;;;;;;6211978;23;20039;-67
2024/01/12 14:10:53;;;;;;;12.13;6.70;;;3.20;99.90;;;;;;6211422;23;20020;-68
2024/01/12 14:13:39;;;;;;;12.70;7.63;;;3.20;99.90;;;;;;6208795;23;20392;-67
2024/01/12 14:16:25;;;;;;;12.80;7.18;;;3.20;99.90;;;;;;6188387;23;20428;-67
2024/01/12 14:19:11;;;;;;;15.23;7.97;;;3.20;99.90;;;;;;6207376;23;20008;-67
2024/01/12 14:21:57;;;;;;;14.15;7.88;;;3.20;99.90;;;;;;6210201;23;20096;-67
2024/01/12 14:24:44;;;;;;;11.27;6.47;;;3.20;99.90;;;;;;6211648;23;20466;-67
2024/01/12 14:27:30;;;;;;;14.48;6.90;;;3.10;99.90;;;;;;6208148;23;20032;-67